Terminal Aerodrome Forecast
Issued by NWS Cleveland, OH

Home | Current Version | Previous Version | Graphics & Text | Print | Product List | Glossary On
Versions: 1 2 3 4 5 6 7 8 9 10 11 12 13 14 15 16 17 18 19 20
000
FTUS41 KCLE 280350 AAB
TAFCAK
TAF AMD
KCAK 280350Z 2804/2824 19012KT 3SM -RA BR OVC006
      TEMPO 2804/2808 2SM -RA BR OVC003
     FM280800 24012KT 2SM -RA BR OVC003
     FM281500 30014G22KT 6SM -RA BR OVC010
     FM282000 32012KT P6SM OVC025=

USA.gov is the U.S. government's official web portal to all federal, state and local government web resources and services.